createdAt,value
2018-12-23T00:01:46.909Z,100280.70
2018-12-23T00:04:14.349Z,100285.66
2018-12-23T00:06:41.774Z,100283.92
2018-12-23T00:09:09.207Z,100279.70
2018-12-23T00:11:36.635Z,100286.14
2018-12-23T00:14:04.068Z,100291.65
2018-12-23T00:16:32.348Z,100293.74
2018-12-23T00:18:59.785Z,100290.28
2018-12-23T00:21:27.213Z,100295.03
2018-12-23T00:23:54.736Z,100304.44
2018-12-23T00:26:22.156Z,100305.16
2018-12-23T00:28:49.588Z,100312.69
2018-12-23T00:31:17.029Z,100312.56
2018-12-23T00:33:44.496Z,100316.34
2018-12-23T00:36:11.924Z,100315.94
2018-12-23T00:38:39.353Z,100320.47
2018-12-23T00:41:06.795Z,100314.44
2018-12-23T00:43:34.216Z,100321.64
2018-12-23T00:46:01.648Z,100324.54
2018-12-23T00:48:29.181Z,100323.62
2018-12-23T00:50:56.619Z,100331.98
2018-12-23T00:53:24.041Z,100338.38
2018-12-23T00:55:51.470Z,100349.77
2018-12-23T00:58:18.900Z,100344.25
2018-12-23T01:00:46.352Z,100346.83
2018-12-23T01:03:13.932Z,100350.56
2018-12-23T01:05:41.368Z,100359.57
2018-12-23T01:08:09.025Z,100367.89
2018-12-23T01:10:36.504Z,100366.81
2018-12-23T01:13:03.928Z,100377.23
2018-12-23T01:15:31.374Z,100386.13
2018-12-23T01:17:58.821Z,100389.63
2018-12-23T01:20:26.264Z,100389.86
2018-12-23T01:22:53.689Z,100399.72
2018-12-23T01:25:21.119Z,100396.54
2018-12-23T01:27:48.615Z,100410.58
2018-12-23T01:30:16.043Z,100417.09
2018-12-23T01:32:43.520Z,100410.30
2018-12-23T01:35:10.962Z,100426.58
2018-12-23T01:37:38.388Z,100435.52
2018-12-23T01:40:05.816Z,100444.39
2018-12-23T01:42:33.245Z,100446.41
2018-12-23T01:45:00.699Z,100443.63
2018-12-23T01:47:28.197Z,100435.53
2018-12-23T01:49:55.644Z,100445.12
2018-12-23T01:52:23.068Z,100447.83
2018-12-23T01:54:50.501Z,100449.47
2018-12-23T01:57:17.931Z,100457.72
2018-12-23T01:59:45.364Z,100451.96
2018-12-23T02:02:12.788Z,100464.30
2018-12-23T02:04:40.229Z,100472.34
2018-12-23T02:07:07.661Z,100479.17
2018-12-23T02:09:35.093Z,100470.91
2018-12-23T02:12:02.521Z,100476.19
2018-12-23T02:14:29.966Z,100483.56
2018-12-23T02:16:57.397Z,100479.17
2018-12-23T02:19:24.958Z,100484.80
2018-12-23T02:21:52.600Z,100490.34
2018-12-23T02:24:20.072Z,100482.50
2018-12-23T02:26:47.508Z,100488.44
2018-12-23T02:29:14.957Z,100495.23
2018-12-23T02:31:42.397Z,100496.64
2018-12-23T02:34:09.824Z,100497.80
2018-12-23T02:36:37.283Z,100499.89
2018-12-23T02:39:04.945Z,100508.41
2018-12-23T02:41:32.384Z,100507.20
2018-12-23T02:43:59.821Z,100504.28
2018-12-23T02:46:27.251Z,100508.14
2018-12-23T02:48:55.280Z,100513.33
2018-12-23T02:51:22.729Z,100516.75
2018-12-23T02:53:50.224Z,100530.23
2018-12-23T02:56:17.695Z,100527.12
2018-12-23T02:58:45.115Z,100529.86
2018-12-23T03:01:12.548Z,100536.17
2018-12-23T03:03:39.989Z,100535.92
2018-12-23T03:06:07.418Z,100530.72
2018-12-23T03:08:34.851Z,100539.27
2018-12-23T03:11:02.338Z,100537.00
2018-12-23T03:13:29.766Z,100542.63
2018-12-23T03:15:57.200Z,100541.66
2018-12-23T03:18:24.639Z,100548.94
2018-12-23T03:20:52.175Z,100539.08
2018-12-23T03:23:19.602Z,100544.28
2018-12-23T03:25:47.041Z,100548.16
2018-12-23T03:28:14.472Z,100540.84
2018-12-23T03:30:41.999Z,100541.75
2018-12-23T03:33:09.437Z,100544.48
2018-12-23T03:35:36.949Z,100543.04
2018-12-23T03:38:04.380Z,100540.72
2018-12-23T03:40:31.809Z,100544.17
2018-12-23T03:42:59.249Z,100543.84
2018-12-23T03:45:26.744Z,100551.48
2018-12-23T03:47:54.180Z,100548.33
2018-12-23T03:50:21.613Z,100542.09
2018-12-23T03:52:49.054Z,100539.20
2018-12-23T03:55:16.477Z,100539.84
2018-12-23T03:57:43.913Z,100540.62
2018-12-23T04:00:11.341Z,100540.97
2018-12-23T04:02:38.776Z,100546.20
2018-12-23T04:05:06.222Z,100548.98
2018-12-23T04:07:33.661Z,100543.78
2018-12-23T04:10:01.096Z,100541.77
2018-12-23T04:12:28.533Z,100547.16
2018-12-23T04:14:55.968Z,100541.72
2018-12-23T04:17:23.409Z,100538.08
2018-12-23T04:19:50.837Z,100532.51
2018-12-23T04:22:18.265Z,100542.52
2018-12-23T04:24:45.763Z,100539.16
2018-12-23T04:27:13.192Z,100537.23
2018-12-23T04:29:40.678Z,100537.33
2018-12-23T04:32:08.223Z,100533.94
2018-12-23T04:34:35.796Z,100538.42
2018-12-23T04:37:03.237Z,100543.64
2018-12-23T04:39:31.441Z,100558.64
2018-12-23T04:41:58.939Z,100557.62
2018-12-23T04:44:26.373Z,100569.16
2018-12-23T04:46:53.930Z,100566.61
2018-12-23T04:49:21.571Z,100561.91
2018-12-23T04:51:49.006Z,100563.84
2018-12-23T04:54:16.513Z,100557.42
2018-12-23T04:56:44.045Z,100559.19
2018-12-23T04:59:11.476Z,100565.67
2018-12-23T05:01:38.960Z,100564.23
2018-12-23T05:04:06.385Z,100567.28
2018-12-23T05:06:43.048Z,100564.33
2018-12-23T05:09:04.632Z,100571.14
2018-12-23T05:11:32.064Z,100571.69
2018-12-23T05:13:59.509Z,100573.70
2018-12-23T05:16:26.940Z,100568.66
2018-12-23T05:18:54.368Z,100563.44
2018-12-23T05:21:21.797Z,100572.52
2018-12-23T05:23:49.237Z,100572.33
2018-12-23T05:26:16.705Z,100575.94
2018-12-23T05:28:44.168Z,100566.95
2018-12-23T05:31:11.600Z,100570.41
2018-12-23T05:33:39.037Z,100570.50
2018-12-23T05:36:06.488Z,100579.95
2018-12-23T05:38:33.920Z,100577.85
2018-12-23T05:41:01.368Z,100578.34
2018-12-23T05:43:28.909Z,100585.55
2018-12-23T05:45:56.363Z,100585.08
2018-12-23T05:48:23.930Z,100588.36
2018-12-23T05:50:51.372Z,100588.84
2018-12-23T05:53:18.846Z,100591.56
2018-12-23T05:55:46.301Z,100593.28
2018-12-23T05:58:13.757Z,100596.30
2018-12-23T06:00:41.204Z,100598.96
2018-12-23T06:03:08.650Z,100596.63
2018-12-23T06:05:36.146Z,100604.19
2018-12-23T06:08:03.585Z,100599.99
2018-12-23T06:10:31.084Z,100603.61
2018-12-23T06:12:58.522Z,100601.43
2018-12-23T06:15:25.953Z,100598.31
2018-12-23T06:17:53.380Z,100602.71
2018-12-23T06:20:20.812Z,100608.17
2018-12-23T06:22:48.241Z,100595.64
2018-12-23T06:25:15.680Z,100599.34
2018-12-23T06:27:43.118Z,100601.73
2018-12-23T06:30:10.549Z,100601.75
2018-12-23T06:32:37.981Z,100601.92
2018-12-23T06:35:05.407Z,100608.03
2018-12-23T06:37:32.845Z,100607.94
2018-12-23T06:40:00.272Z,100612.83
2018-12-23T06:42:27.705Z,100607.14
2018-12-23T06:44:55.128Z,100607.29
2018-12-23T06:47:22.560Z,100605.61
2018-12-23T06:49:49.992Z,100607.84
2018-12-23T06:52:17.518Z,100606.78
2018-12-23T06:54:44.957Z,100606.64
2018-12-23T06:57:12.436Z,100606.73
2018-12-23T06:59:39.856Z,100607.19
2018-12-23T07:02:07.306Z,100612.02
2018-12-23T07:04:34.727Z,100607.17
2018-12-23T07:07:02.152Z,100605.00
2018-12-23T07:09:29.586Z,100597.54
2018-12-23T07:11:57.066Z,100599.71
2018-12-23T07:14:24.492Z,100605.58
2018-12-23T07:16:51.950Z,100610.06
2018-12-23T07:19:19.384Z,100597.14
2018-12-23T07:21:47.688Z,100615.77
2018-12-23T07:24:15.624Z,100600.98
2018-12-23T07:26:43.757Z,100604.75
2018-12-23T07:29:11.282Z,100597.52
2018-12-23T07:31:38.703Z,100604.78
2018-12-23T07:34:06.133Z,100609.09
2018-12-23T07:36:33.597Z,100612.47
2018-12-23T07:39:01.073Z,100610.20
2018-12-23T07:41:28.496Z,100617.28
2018-12-23T07:43:55.933Z,100611.84
2018-12-23T07:46:24.152Z,100613.13
2018-12-23T07:48:51.600Z,100620.48
2018-12-23T07:51:19.025Z,100627.88
2018-12-23T07:53:46.457Z,100622.47
2018-12-23T07:56:13.896Z,100611.79
2018-12-23T07:58:41.341Z,100604.09
2018-12-23T08:01:08.777Z,100608.53
2018-12-23T08:03:36.185Z,100614.22
2018-12-23T08:06:03.617Z,100610.98
2018-12-23T08:08:31.037Z,100609.78
2018-12-23T08:10:59.044Z,100608.02
2018-12-23T08:13:26.487Z,100607.22
2018-12-23T08:15:53.915Z,100604.78
2018-12-23T08:18:21.345Z,100596.48
2018-12-23T08:20:48.782Z,100594.05
2018-12-23T08:23:16.209Z,100592.02
2018-12-23T08:25:43.645Z,100600.98
2018-12-23T08:28:11.171Z,100592.91
2018-12-23T08:30:38.684Z,100595.83
2018-12-23T08:33:06.128Z,100595.08
2018-12-23T08:35:33.561Z,100596.50
2018-12-23T08:38:01.005Z,100600.53
2018-12-23T08:40:28.434Z,100598.78
2018-12-23T08:42:55.893Z,100607.61
2018-12-23T08:45:23.344Z,100605.30
2018-12-23T08:47:50.789Z,100603.00
2018-12-23T08:50:18.221Z,100617.88
2018-12-23T08:52:45.664Z,100612.21
2018-12-23T08:55:13.096Z,100612.34
2018-12-23T08:57:40.546Z,100611.38
2018-12-23T09:00:08.021Z,100613.49
2018-12-23T09:02:35.466Z,100611.41
2018-12-23T09:05:02.919Z,100617.45
2018-12-23T09:07:30.359Z,100615.52
2018-12-23T09:09:57.799Z,100610.59
2018-12-23T09:12:25.240Z,100615.61
2018-12-23T09:14:52.668Z,100609.27
2018-12-23T09:17:20.100Z,100616.14
2018-12-23T09:19:47.540Z,100612.96
2018-12-23T09:22:14.985Z,100610.61
2018-12-23T09:24:42.427Z,100615.53
2018-12-23T09:27:09.872Z,100616.64
2018-12-23T09:29:37.322Z,100608.92
2018-12-23T09:32:04.765Z,100602.56
2018-12-23T09:34:32.197Z,100596.53
2018-12-23T09:36:59.770Z,100604.77
2018-12-23T09:39:27.207Z,100599.94
2018-12-23T09:41:54.631Z,100603.26
2018-12-23T09:44:22.078Z,100596.31
2018-12-23T09:46:49.513Z,100585.78
2018-12-23T09:49:17.054Z,100598.59
2018-12-23T09:51:44.486Z,100597.56
2018-12-23T09:54:11.928Z,100594.80
2018-12-23T09:56:39.360Z,100599.66
2018-12-23T09:59:06.792Z,100590.13
2018-12-23T10:01:34.227Z,100593.02
2018-12-23T10:04:01.664Z,100594.31
2018-12-23T10:06:29.103Z,100593.36
2018-12-23T10:08:56.540Z,100591.18
2018-12-23T10:11:23.968Z,100590.09
2018-12-23T10:13:51.405Z,100587.44
2018-12-23T10:16:18.845Z,100580.19
2018-12-23T10:18:46.292Z,100576.76
2018-12-23T10:21:13.720Z,100578.94
2018-12-23T10:23:41.159Z,100573.73
2018-12-23T10:26:08.602Z,100578.56
2018-12-23T10:28:36.048Z,100566.41
2018-12-23T10:31:03.474Z,100568.25
2018-12-23T10:33:30.917Z,100566.20
2018-12-23T10:35:58.352Z,100567.50
2018-12-23T10:38:25.840Z,100558.16
2018-12-23T10:40:53.277Z,100565.20
2018-12-23T10:43:20.720Z,100553.45
2018-12-23T10:45:48.157Z,100563.35
2018-12-23T10:48:15.589Z,100549.27
2018-12-23T10:50:43.021Z,100548.86
2018-12-23T10:53:10.458Z,100551.95
2018-12-23T10:55:37.889Z,100550.42
2018-12-23T10:58:05.320Z,100550.95
2018-12-23T11:00:32.784Z,100548.77
2018-12-23T11:03:00.225Z,100539.72
2018-12-23T11:05:27.662Z,100530.34
2018-12-23T11:07:55.084Z,100531.50
2018-12-23T11:10:22.531Z,100526.35
2018-12-23T11:12:49.957Z,100521.73
2018-12-23T11:15:17.384Z,100520.03
2018-12-23T11:17:44.893Z,100529.53
2018-12-23T11:20:12.326Z,100525.27
2018-12-23T11:22:39.764Z,100525.39
2018-12-23T11:25:07.217Z,100507.99
2018-12-23T11:27:34.743Z,100502.48
2018-12-23T11:30:02.172Z,100507.87
2018-12-23T11:32:29.614Z,100500.06
2018-12-23T11:34:57.097Z,100495.92
2018-12-23T11:37:24.532Z,100495.36
2018-12-23T11:39:51.965Z,100495.27
2018-12-23T11:42:19.408Z,100491.28
2018-12-23T11:44:46.836Z,100487.33
2018-12-23T11:47:14.259Z,100479.58
2018-12-23T11:49:41.700Z,100474.46
2018-12-23T11:52:09.132Z,100468.30
2018-12-23T11:54:36.581Z,100459.69
2018-12-23T11:57:04.019Z,100457.66
2018-12-23T11:59:31.492Z,100462.34
2018-12-23T12:01:58.966Z,100457.40
2018-12-23T12:04:26.481Z,100454.20
2018-12-23T12:06:53.917Z,100455.92
2018-12-23T12:09:21.393Z,100452.05
2018-12-23T12:11:50.936Z,100447.37
2018-12-23T12:14:18.233Z,100445.02
2018-12-23T12:16:45.673Z,100443.63
2018-12-23T12:19:13.121Z,100437.88
2018-12-23T12:21:40.548Z,100433.61
2018-12-23T12:24:07.977Z,100441.59
2018-12-23T12:26:35.421Z,100438.45
2018-12-23T12:29:02.866Z,100430.84
2018-12-23T12:31:30.308Z,100421.56
2018-12-23T12:33:57.741Z,100415.97
2018-12-23T12:36:25.207Z,100402.27
2018-12-23T12:38:52.694Z,100406.22
2018-12-23T12:41:20.189Z,100402.13
2018-12-23T12:43:47.626Z,100401.84
2018-12-23T12:46:15.062Z,100393.73
2018-12-23T12:48:42.560Z,100403.34
2018-12-23T12:51:09.997Z,100393.25
2018-12-23T12:53:37.482Z,100395.35
2018-12-23T12:56:05.123Z,100389.69
2018-12-23T12:58:32.603Z,100388.65
2018-12-23T13:01:00.028Z,100390.56
2018-12-23T13:03:27.637Z,100394.16
2018-12-23T13:05:55.083Z,100395.11
2018-12-23T13:08:22.532Z,100396.63
2018-12-23T13:10:49.972Z,100393.13
2018-12-23T13:13:17.480Z,100400.70
2018-12-23T13:15:44.917Z,100394.02
2018-12-23T13:18:12.342Z,100388.91
2018-12-23T13:20:39.829Z,100385.12
2018-12-23T13:23:07.259Z,100378.97
2018-12-23T13:25:34.686Z,100372.05
2018-12-23T13:28:02.121Z,100377.56
2018-12-23T13:30:29.566Z,100373.55
2018-12-23T13:32:57.000Z,100356.06
2018-12-23T13:35:24.442Z,100351.80
2018-12-23T13:37:51.865Z,100351.61
2018-12-23T13:40:19.310Z,100340.49
2018-12-23T13:42:46.731Z,100344.83
2018-12-23T13:45:14.177Z,100337.84
2018-12-23T13:47:41.600Z,100339.20
2018-12-23T13:50:09.038Z,100334.09
2018-12-23T13:52:36.461Z,100330.62
2018-12-23T13:55:03.934Z,100332.09
2018-12-23T13:57:31.359Z,100328.12
2018-12-23T13:59:58.813Z,100338.94
2018-12-23T14:02:26.292Z,100341.00
2018-12-23T14:04:53.729Z,100345.64
2018-12-23T14:07:21.202Z,100341.70
2018-12-23T14:09:48.659Z,100331.28
2018-12-23T14:12:48.889Z,100331.51
2018-12-23T14:15:17.166Z,100333.90
2018-12-23T14:17:45.233Z,100331.14
2018-12-23T14:20:13.414Z,100323.22
2018-12-23T14:22:41.587Z,100317.88
2018-12-23T14:25:09.758Z,100313.28
2018-12-23T14:27:37.655Z,100324.86
2018-12-23T14:30:05.801Z,100320.56
2018-12-23T14:32:33.636Z,100312.86
2018-12-23T14:35:01.737Z,100303.56
2018-12-23T14:37:29.913Z,100305.91
2018-12-23T14:39:58.006Z,100303.84
2018-12-23T14:42:26.162Z,100305.91
2018-12-23T14:44:53.984Z,100302.26
2018-12-23T14:47:22.103Z,100306.41
2018-12-23T14:49:49.935Z,100299.70
2018-12-23T14:52:17.757Z,100308.17
2018-12-23T14:54:45.583Z,100305.02
2018-12-23T14:57:13.670Z,100303.14
2018-12-23T14:59:41.862Z,100300.89
2018-12-23T15:02:09.693Z,100302.23
2018-12-23T15:04:37.516Z,100300.25
2018-12-23T15:07:05.653Z,100296.61
2018-12-23T15:09:34.425Z,100305.30
2018-12-23T15:12:02.473Z,100298.50
2018-12-23T15:14:30.299Z,100280.59
2018-12-23T15:16:58.131Z,100274.36
2018-12-23T15:19:25.944Z,100284.43
2018-12-23T15:21:54.083Z,100283.02
2018-12-23T15:24:21.911Z,100291.67
2018-12-23T15:26:50.025Z,100264.89
2018-12-23T15:29:17.844Z,100286.92
2018-12-23T15:31:45.967Z,100289.16
2018-12-23T15:34:13.784Z,100287.40
2018-12-23T15:36:41.629Z,100285.23
2018-12-23T15:39:09.780Z,100278.41
2018-12-23T15:41:37.944Z,100275.42
2018-12-23T15:44:06.121Z,100271.97
2018-12-23T15:46:33.949Z,100273.78
2018-12-23T15:49:02.061Z,100264.98
2018-12-23T15:51:30.238Z,100267.26
2018-12-23T15:53:58.722Z,100260.06
2018-12-23T15:56:26.892Z,100264.59
2018-12-23T15:58:54.713Z,100258.53
2018-12-23T16:01:22.830Z,100259.41
2018-12-23T16:03:51.000Z,100252.14
2018-12-23T16:06:19.182Z,100253.78
2018-12-23T16:08:47.355Z,100248.22
2018-12-23T16:11:15.525Z,100244.52
2018-12-23T16:13:43.705Z,100235.44
2018-12-23T16:16:11.876Z,100235.92
2018-12-23T16:18:39.951Z,100225.03
2018-12-23T16:21:07.845Z,100223.02
2018-12-23T16:23:35.671Z,100221.30
2018-12-23T16:26:03.858Z,100211.17
2018-12-23T16:28:31.665Z,100207.16
2018-12-23T16:30:59.485Z,100197.16
2018-12-23T16:33:27.667Z,100197.12
2018-12-23T16:35:55.488Z,100195.34
2018-12-23T16:38:23.392Z,100191.25
2018-12-23T16:40:51.468Z,100188.04
2018-12-23T16:43:19.645Z,100181.29
2018-12-23T16:45:47.817Z,100176.59
2018-12-23T16:48:15.649Z,100168.08
2018-12-23T16:50:43.480Z,100164.42
2018-12-23T16:53:11.625Z,100157.36
2018-12-23T16:55:39.445Z,100165.66
2018-12-23T16:58:07.276Z,100170.13
2018-12-23T17:00:35.433Z,100162.77
2018-12-23T17:03:03.342Z,100149.16
2018-12-23T17:05:31.482Z,100154.86
2018-12-23T17:07:59.317Z,100146.71
2018-12-23T17:10:27.142Z,100150.97
2018-12-23T17:12:55.284Z,100149.44
2018-12-23T17:15:23.182Z,100137.75
2018-12-23T17:17:51.015Z,100137.40
2018-12-23T17:20:18.844Z,100131.73
2018-12-23T17:22:46.673Z,100137.83
2018-12-23T17:25:14.497Z,100139.56
2018-12-23T17:27:42.589Z,100141.33
2018-12-23T17:30:10.415Z,100133.90
2018-12-23T17:32:38.527Z,100136.47
2018-12-23T17:35:06.705Z,100134.83
2018-12-23T17:37:34.536Z,100128.16
2018-12-23T17:40:02.660Z,100133.98
2018-12-23T17:42:30.814Z,100127.95
2018-12-23T17:44:58.637Z,100123.02
2018-12-23T17:47:26.468Z,100124.17
2018-12-23T17:49:54.622Z,100126.95
2018-12-23T17:52:23.545Z,100124.10
2018-12-23T17:54:51.703Z,100123.56
2018-12-23T17:57:19.862Z,100116.15
2018-12-23T17:59:48.047Z,100109.97
2018-12-23T18:02:15.875Z,100111.73
2018-12-23T18:04:43.695Z,100101.19
2018-12-23T18:07:11.847Z,100097.13
2018-12-23T18:09:39.684Z,100106.80
2018-12-23T18:12:07.518Z,100102.22
2018-12-23T18:14:35.665Z,100087.94
2018-12-23T18:17:03.666Z,100084.08
2018-12-23T18:19:31.800Z,100080.23
2018-12-23T18:21:59.625Z,100083.36
2018-12-23T18:24:27.734Z,100082.39
2018-12-23T18:26:55.558Z,100078.02
2018-12-23T18:29:23.398Z,100089.45
2018-12-23T18:31:51.540Z,100077.48
2018-12-23T18:34:19.369Z,100078.89
2018-12-23T18:36:47.480Z,100074.48
2018-12-23T18:39:15.313Z,100063.81
2018-12-23T18:41:43.419Z,100051.66
2018-12-23T18:44:11.254Z,100045.72
2018-12-23T18:46:39.085Z,100040.37
2018-12-23T18:49:07.227Z,100043.67
2018-12-23T18:51:35.397Z,100043.75
2018-12-23T18:54:03.579Z,100039.30
2018-12-23T18:56:31.769Z,100036.45
2018-12-23T18:58:59.923Z,100029.14
2018-12-23T19:01:28.102Z,100024.81
2018-12-23T19:03:56.269Z,100025.41
2018-12-23T19:06:24.102Z,100019.47
2018-12-23T19:08:59.322Z,100018.18
2018-12-23T19:11:21.823Z,100021.84
2018-12-23T19:13:49.995Z,100012.61
2018-12-23T19:16:17.837Z,100009.00
2018-12-23T19:18:45.673Z,100011.73
2018-12-23T19:21:13.503Z,100014.13
2018-12-23T19:23:41.666Z,100016.63
2018-12-23T19:26:09.844Z,100011.16
2018-12-23T19:28:38.023Z,100014.74
2018-12-23T19:31:06.192Z,100004.27
2018-12-23T19:33:34.369Z,100003.14
2018-12-23T19:36:02.866Z,99997.56
2018-12-23T19:38:30.692Z,99988.30
2018-12-23T19:40:58.786Z,99992.11
2018-12-23T19:43:26.616Z,99992.30
2018-12-23T19:45:54.724Z,99991.72
2018-12-23T19:48:23.208Z,99989.51
2018-12-23T19:50:51.028Z,99992.44
2018-12-23T19:53:19.145Z,99979.92
2018-12-23T19:55:47.218Z,99973.73
2018-12-23T19:58:15.392Z,99980.80
2018-12-23T20:00:43.209Z,99977.27
2018-12-23T20:03:11.331Z,99964.23
2018-12-23T20:05:39.150Z,99957.22
2018-12-23T20:08:07.269Z,99953.47
2018-12-23T20:10:35.342Z,99957.70
2018-12-23T20:13:03.519Z,99953.61
2018-12-23T20:15:32.945Z,99958.86
2018-12-23T20:18:00.993Z,99954.41
2018-12-23T20:20:29.231Z,99947.19
2018-12-23T20:22:56.985Z,99949.16
2018-12-23T20:25:24.812Z,99949.88
2018-12-23T20:27:52.633Z,99942.34
2018-12-23T20:30:20.455Z,99933.60
2018-12-23T20:32:48.605Z,99945.91
2018-12-23T20:35:16.441Z,99955.02
2018-12-23T20:37:44.264Z,99965.23
2018-12-23T20:40:12.412Z,99949.08
2018-12-23T20:42:40.584Z,99951.41
2018-12-23T20:45:08.765Z,99950.28
2018-12-23T20:47:38.152Z,99949.77
2018-12-23T20:50:06.646Z,99950.04
2018-12-23T20:52:34.465Z,99944.70
2018-12-23T20:55:02.584Z,99940.77
2018-12-23T20:57:30.656Z,99941.22
2018-12-23T20:59:58.487Z,99933.76
2018-12-23T21:02:28.466Z,99943.62
2018-12-23T21:04:56.632Z,99926.59
2018-12-23T21:07:24.788Z,99940.78
2018-12-23T21:09:52.618Z,99941.30
2018-12-23T21:12:20.435Z,99938.09
2018-12-23T21:14:48.592Z,99940.17
2018-12-23T21:17:16.417Z,99929.19
2018-12-23T21:19:44.532Z,99917.36
2018-12-23T21:22:12.354Z,99917.08
2018-12-23T21:24:40.180Z,99907.02
2018-12-23T21:27:08.341Z,99902.64
2018-12-23T21:29:36.511Z,99900.80
2018-12-23T21:32:04.600Z,99888.25
2018-12-23T21:34:32.425Z,99882.36
2018-12-23T21:37:00.524Z,99876.30
2018-12-23T21:39:28.705Z,99877.59
2018-12-23T21:41:56.775Z,99872.58
2018-12-23T21:44:24.598Z,99874.50
2018-12-23T22:01:28.255Z,99881.84
2018-12-23T22:03:56.423Z,99885.57
2018-12-23T22:06:24.592Z,99872.39
2018-12-23T22:08:52.782Z,99869.55
2018-12-23T22:11:20.935Z,99855.64
2018-12-23T22:13:49.010Z,99857.59
2018-12-23T22:16:17.099Z,99868.86
2018-12-23T22:18:45.257Z,99854.52
2018-12-23T22:21:13.087Z,99850.66
2018-12-23T22:23:41.198Z,99851.27
2018-12-23T22:26:09.377Z,99850.51
2018-12-23T22:28:37.192Z,99847.78
2018-12-23T22:31:05.315Z,99831.83
2018-12-23T22:33:33.136Z,99833.98
2018-12-23T22:36:01.251Z,99833.20
2018-12-23T22:38:29.065Z,99841.41
2018-12-23T22:40:57.196Z,99836.20
2018-12-23T22:43:25.383Z,99855.20
2018-12-23T22:45:53.535Z,99851.67
2018-12-23T22:48:21.609Z,99863.17
2018-12-23T22:50:49.435Z,99839.08
2018-12-23T22:53:17.548Z,99831.19
2018-12-23T22:55:45.723Z,99831.19
2018-12-23T22:58:13.538Z,99815.61
2018-12-23T23:00:42.380Z,99841.77
2018-12-23T23:03:10.555Z,99827.74
2018-12-23T23:05:38.382Z,99811.23
2018-12-23T23:08:06.200Z,99811.23
2018-12-23T23:10:34.361Z,99820.53
2018-12-23T23:13:02.546Z,99818.41
2018-12-23T23:15:30.708Z,99815.83
2018-12-23T23:17:58.527Z,99813.34
2018-12-23T23:20:26.351Z,99818.19
2018-12-23T23:22:54.166Z,99812.74
2018-12-23T23:25:21.991Z,99825.20
2018-12-23T23:27:50.147Z,99818.80
2018-12-23T23:30:17.977Z,99815.84
2018-12-23T23:32:45.792Z,99820.02
2018-12-23T23:35:13.952Z,99795.45
2018-12-23T23:37:42.129Z,99797.68
2018-12-23T23:40:10.305Z,99788.92
2018-12-23T23:42:38.124Z,99789.72
2018-12-23T23:45:05.961Z,99780.44
2018-12-23T23:47:34.109Z,99787.96
2018-12-23T23:50:01.935Z,99782.84
2018-12-23T23:52:29.755Z,99759.98
2018-12-23T23:54:57.935Z,99758.44
2018-12-23T23:57:25.755Z,99758.44
2018-12-23T23:59:53.858Z,99770.57
